sensor_id;sensor_type;location;lat;lon;timestamp;pressure;altitude;pressure_sealevel;temperature;humidity
7105;BME280;3594;42.152;24.714;2022-09-23T00:00:36;-24151.44;;;11.98;nan
7105;BME280;3594;42.152;24.714;2022-09-23T00:03:03;-24154.69;;;12.09;nan
7105;BME280;3594;42.152;24.714;2022-09-23T00:05:29;-24159.47;;;12.26;nan
7105;BME280;3594;42.152;24.714;2022-09-23T00:07:55;-24159.19;;;12.25;nan
7105;BME280;3594;42.152;24.714;2022-09-23T00:10:22;-24157.50;;;12.19;nan
7105;BME280;3594;42.152;24.714;2022-09-23T00:12:48;-24159.75;;;12.27;nan
7105;BME280;3594;42.152;24.714;2022-09-23T00:15:14;-24169.31;;;12.62;nan
7105;BME280;3594;42.152;24.714;2022-09-23T00:17:39;-24163.13;;;12.39;nan
7105;BME280;3594;42.152;24.714;2022-09-23T00:20:06;-24157.09;;;12.18;nan
7105;BME280;3594;42.152;24.714;2022-09-23T00:22:34;-24157.09;;;12.18;nan
7105;BME280;3594;42.152;24.714;2022-09-23T00:25:01;-24154.25;;;12.08;nan
7105;BME280;3594;42.152;24.714;2022-09-23T00:27:27;-24158.63;;;12.23;nan
7105;BME280;3594;42.152;24.714;2022-09-23T00:29:53;-24164.69;;;12.45;nan
7105;BME280;3594;42.152;24.714;2022-09-23T00:32:19;-24165.66;;;12.49;nan
7105;BME280;3594;42.152;24.714;2022-09-23T00:34:44;-24160.03;;;12.28;nan
7105;BME280;3594;42.152;24.714;2022-09-23T00:37:12;-24161.72;;;12.34;nan
7105;BME280;3594;42.152;24.714;2022-09-23T00:39:38;-24169.31;;;12.62;nan
7105;BME280;3594;42.152;24.714;2022-09-23T00:42:04;-24168.47;;;12.59;nan
7105;BME280;3594;42.152;24.714;2022-09-23T00:44:46;-24166.94;;;12.53;nan
7105;BME280;3594;42.152;24.714;2022-09-23T00:47:25;-24169.03;;;12.61;nan
7105;BME280;3594;42.152;24.714;2022-09-23T00:52:53;-24161.44;;;12.33;nan
7105;BME280;3594;42.152;24.714;2022-09-23T00:55:43;-24166.78;;;12.53;nan
7105;BME280;3594;42.152;24.714;2022-09-23T00:58:14;-24169.03;;;12.61;nan
7105;BME280;3594;42.152;24.714;2022-09-23T01:00:42;-24158.34;;;12.22;nan
7105;BME280;3594;42.152;24.714;2022-09-23T01:03:08;-24167.91;;;12.57;nan
7105;BME280;3594;42.152;24.714;2022-09-23T01:05:35;-24160.31;;;12.29;nan
7105;BME280;3594;42.152;24.714;2022-09-23T01:08:02;-24159.47;;;12.26;nan
7105;BME280;3594;42.152;24.714;2022-09-23T01:13:51;-24160.19;;;12.29;nan
7105;BME280;3594;42.152;24.714;2022-09-23T01:19:33;-24158.06;;;12.21;nan
7105;BME280;3594;42.152;24.714;2022-09-23T01:29:58;-24163.00;;;12.39;nan
7105;BME280;3594;42.152;24.714;2022-09-23T01:38:21;-24155.81;;;12.13;nan
7105;BME280;3594;42.152;24.714;2022-09-23T01:41:09;-24145.13;;;11.75;nan
7105;BME280;3594;42.152;24.714;2022-09-23T01:46:20;-24146.81;;;11.81;nan
7105;BME280;3594;42.152;24.714;2022-09-23T01:48:55;-24140.19;;;11.57;nan
7105;BME280;3594;42.152;24.714;2022-09-23T01:51:30;-24150.88;;;11.95;nan
7105;BME280;3594;42.152;24.714;2022-09-23T01:54:03;-24140.03;;;11.57;nan
7105;BME280;3594;42.152;24.714;2022-09-23T01:56:48;-24147.66;;;11.84;nan
7105;BME280;3594;42.152;24.714;2022-09-23T02:02:19;-24140.03;;;11.57;nan
7105;BME280;3594;42.152;24.714;2022-09-23T02:04:52;-24139.91;;;11.56;nan
7105;BME280;3594;42.152;24.714;2022-09-23T02:07:24;-24140.59;;;11.59;nan
7105;BME280;3594;42.152;24.714;2022-09-23T02:10:02;-24130.47;;;11.22;nan
7105;BME280;3594;42.152;24.714;2022-09-23T02:12:32;-24139.91;;;11.56;nan
7105;BME280;3594;42.152;24.714;2022-09-23T02:15:06;-24128.91;;;11.17;nan
7105;BME280;3594;42.152;24.714;2022-09-23T02:18:00;-24138.91;;;11.52;nan
7105;BME280;3594;42.152;24.714;2022-09-23T02:20:29;-24129.59;;;11.19;nan
7105;BME280;3594;42.152;24.714;2022-09-23T02:23:04;-24140.75;;;11.59;nan
7105;BME280;3594;42.152;24.714;2022-09-23T02:25:41;-24133.84;;;11.34;nan
7105;BME280;3594;42.152;24.714;2022-09-23T02:28:16;-24129.47;;;11.19;nan
7105;BME280;3594;42.152;24.714;2022-09-23T02:30:51;-24126.38;;;11.07;nan
7105;BME280;3594;42.152;24.714;2022-09-23T02:33:23;-24133.00;;;11.31;nan
7105;BME280;3594;42.152;24.714;2022-09-23T02:36:01;-24131.72;;;11.27;nan
7105;BME280;3594;42.152;24.714;2022-09-23T02:38:41;-24108.59;;;10.44;nan
7105;BME280;3594;42.152;24.714;2022-09-23T02:44:07;-24136.94;;;11.45;nan
7105;BME280;3594;42.152;24.714;2022-09-23T02:46:31;-24132.44;;;11.29;nan
7105;BME280;3594;42.152;24.714;2022-09-23T02:49:21;-24131.72;;;11.27;nan
7105;BME280;3594;42.152;24.714;2022-09-23T02:51:45;-24136.09;;;11.42;nan
7105;BME280;3594;42.152;24.714;2022-09-23T02:54:15;-24137.63;;;11.48;nan
7105;BME280;3594;42.152;24.714;2022-09-23T02:56:43;-24125.81;;;11.05;nan
7105;BME280;3594;42.152;24.714;2022-09-23T02:59:08;-24134.69;;;11.37;nan
7105;BME280;3594;42.152;24.714;2022-09-23T03:02:01;-24134.13;;;11.35;nan
7105;BME280;3594;42.152;24.714;2022-09-23T03:07:23;-24131.03;;;11.24;nan
7105;BME280;3594;42.152;24.714;2022-09-23T03:10:16;-24127.78;;;11.13;nan
7105;BME280;3594;42.152;24.714;2022-09-23T03:12:49;-24133.56;;;11.33;nan
7105;BME280;3594;42.152;24.714;2022-09-23T03:18:24;-24128.63;;;11.16;nan
7105;BME280;3594;42.152;24.714;2022-09-23T03:21:06;-24126.94;;;11.10;nan
7105;BME280;3594;42.152;24.714;2022-09-23T03:23:35;-24132.44;;;11.29;nan
7105;BME280;3594;42.152;24.714;2022-09-23T03:26:30;-24128.63;;;11.16;nan
7105;BME280;3594;42.152;24.714;2022-09-23T03:28:57;-24132.16;;;11.28;nan
7105;BME280;3594;42.152;24.714;2022-09-23T03:31:26;-24120.88;;;10.88;nan
7105;BME280;3594;42.152;24.714;2022-09-23T03:33:55;-24128.63;;;11.16;nan
7105;BME280;3594;42.152;24.714;2022-09-23T03:36:28;-24128.19;;;11.14;nan
7105;BME280;3594;42.152;24.714;2022-09-23T03:39:38;-24128.34;;;11.15;nan
7105;BME280;3594;42.152;24.714;2022-09-23T03:42:13;-24125.09;;;11.03;nan
7105;BME280;3594;42.152;24.714;2022-09-23T03:44:48;-24118.63;;;10.80;nan
7105;BME280;3594;42.152;24.714;2022-09-23T03:47:16;-24130.31;;;11.22;nan
7105;BME280;3594;42.152;24.714;2022-09-23T03:49:45;-24126.94;;;11.10;nan
7105;BME280;3594;42.152;24.714;2022-09-23T03:52:13;-24129.59;;;11.19;nan
7105;BME280;3594;42.152;24.714;2022-09-23T03:54:39;-24125.66;;;11.05;nan
7105;BME280;3594;42.152;24.714;2022-09-23T03:57:04;-24125.53;;;11.04;nan
7105;BME280;3594;42.152;24.714;2022-09-23T03:59:30;-24118.75;;;10.80;nan
7105;BME280;3594;42.152;24.714;2022-09-23T04:01:57;-24119.75;;;10.84;nan
7105;BME280;3594;42.152;24.714;2022-09-23T04:04:26;-24124.53;;;11.01;nan
7105;BME280;3594;42.152;24.714;2022-09-23T04:06:53;-24115.78;;;10.70;nan
7105;BME280;3594;42.152;24.714;2022-09-23T04:09:19;-24123.41;;;10.97;nan
7105;BME280;3594;42.152;24.714;2022-09-23T04:11:47;-24113.25;;;10.60;nan
7105;BME280;3594;42.152;24.714;2022-09-23T04:14:13;-24118.34;;;10.79;nan
7105;BME280;3594;42.152;24.714;2022-09-23T04:16:39;-24113.53;;;10.61;nan
7105;BME280;3594;42.152;24.714;2022-09-23T04:19:04;-24111.56;;;10.54;nan
7105;BME280;3594;42.152;24.714;2022-09-23T04:21:30;-24122.28;;;10.93;nan
7105;BME280;3594;42.152;24.714;2022-09-23T04:23:56;-24122.69;;;10.94;nan
7105;BME280;3594;42.152;24.714;2022-09-23T04:26:21;-24122.69;;;10.94;nan
7105;BME280;3594;42.152;24.714;2022-09-23T04:28:47;-24126.50;;;11.08;nan
7105;BME280;3594;42.152;24.714;2022-09-23T04:31:12;-24121.16;;;10.89;nan
7105;BME280;3594;42.152;24.714;2022-09-23T04:33:38;-24123.41;;;10.97;nan
7105;BME280;3594;42.152;24.714;2022-09-23T04:36:03;-24126.38;;;11.07;nan
7105;BME280;3594;42.152;24.714;2022-09-23T04:38:29;-24122.56;;;10.94;nan
7105;BME280;3594;42.152;24.714;2022-09-23T04:40:54;-24124.81;;;11.02;nan
7105;BME280;3594;42.152;24.714;2022-09-23T04:43:20;-24117.34;;;10.75;nan
7105;BME280;3594;42.152;24.714;2022-09-23T04:46:00;-24130.47;;;11.22;nan
7105;BME280;3594;42.152;24.714;2022-09-23T04:48:26;-24125.94;;;11.06;nan
7105;BME280;3594;42.152;24.714;2022-09-23T04:50:52;-24121.28;;;10.89;nan
7105;BME280;3594;42.152;24.714;2022-09-23T04:53:17;-24136.66;;;11.44;nan
7105;BME280;3594;42.152;24.714;2022-09-23T04:55:43;-24142.00;;;11.64;nan
7105;BME280;3594;42.152;24.714;2022-09-23T04:58:09;-24141.59;;;11.62;nan
7105;BME280;3594;42.152;24.714;2022-09-23T05:00:35;-24143.84;;;11.70;nan
7105;BME280;3594;42.152;24.714;2022-09-23T05:03:00;-24142.16;;;11.64;nan
7105;BME280;3594;42.152;24.714;2022-09-23T05:05:26;-24143.41;;;11.69;nan
7105;BME280;3594;42.152;24.714;2022-09-23T05:07:56;-24151.03;;;11.96;nan
7105;BME280;3594;42.152;24.714;2022-09-23T05:10:22;-24142.44;;;11.65;nan
7105;BME280;3594;42.152;24.714;2022-09-23T05:12:47;-24148.22;;;11.86;nan
7105;BME280;3594;42.152;24.714;2022-09-23T05:15:13;-24148.78;;;11.88;nan
7105;BME280;3594;42.152;24.714;2022-09-23T05:17:41;-24137.34;;;11.47;nan
7105;BME280;3594;42.152;24.714;2022-09-23T05:20:08;-24151.16;;;11.97;nan
7105;BME280;3594;42.152;24.714;2022-09-23T05:22:37;-24145.69;;;11.77;nan
7105;BME280;3594;42.152;24.714;2022-09-23T05:25:03;-24160.59;;;12.30;nan
7105;BME280;3594;42.152;24.714;2022-09-23T05:27:28;-24166.22;;;12.51;nan
7105;BME280;3594;42.152;24.714;2022-09-23T05:29:55;-24163.56;;;12.41;nan
7105;BME280;3594;42.152;24.714;2022-09-23T05:32:21;-24170.03;;;12.64;nan
7105;BME280;3594;42.152;24.714;2022-09-23T05:34:46;-24172.13;;;12.72;nan
7105;BME280;3594;42.152;24.714;2022-09-23T05:37:12;-24145.69;;;11.77;nan
7105;BME280;3594;42.152;24.714;2022-09-23T05:39:37;-24178.47;;;12.95;nan
7105;BME280;3594;42.152;24.714;2022-09-23T05:42:03;-24179.44;;;12.98;nan
7105;BME280;3594;42.152;24.714;2022-09-23T05:44:28;-24181.69;;;13.06;nan
7105;BME280;3594;42.152;24.714;2022-09-23T05:46:54;-24182.25;;;13.08;nan
7105;BME280;3594;42.152;24.714;2022-09-23T05:49:19;-24182.13;;;13.08;nan
7105;BME280;3594;42.152;24.714;2022-09-23T05:51:45;-24187.31;;;13.26;nan
7105;BME280;3594;42.152;24.714;2022-09-23T05:54:10;-24173.69;;;12.77;nan
7105;BME280;3594;42.152;24.714;2022-09-23T05:56:36;-24178.88;;;12.96;nan
7105;BME280;3594;42.152;24.714;2022-09-23T05:59:03;-24187.59;;;13.27;nan
7105;BME280;3594;42.152;24.714;2022-09-23T06:01:31;-24193.50;;;13.49;nan
7105;BME280;3594;42.152;24.714;2022-09-23T06:03:58;-24193.50;;;13.49;nan
7105;BME280;3594;42.152;24.714;2022-09-23T06:06:29;-24190.25;;;13.37;nan
7105;BME280;3594;42.152;24.714;2022-09-23T06:08:55;-24189.84;;;13.36;nan
7105;BME280;3594;42.152;24.714;2022-09-23T06:11:21;-24191.66;;;13.42;nan
7105;BME280;3594;42.152;24.714;2022-09-23T06:13:47;-24199.69;;;13.71;nan
7105;BME280;3594;42.152;24.714;2022-09-23T06:16:14;-24198.28;;;13.66;nan
7105;BME280;3594;42.152;24.714;2022-09-23T06:18:44;-24210.06;;;14.08;nan
7105;BME280;3594;42.152;24.714;2022-09-23T06:21:15;-24203.47;;;13.85;nan
7105;BME280;3594;42.152;24.714;2022-09-23T06:23:41;-24212.03;;;14.15;nan
7105;BME280;3594;42.152;24.714;2022-09-23T06:26:08;-24218.22;;;14.38;nan
7105;BME280;3594;42.152;24.714;2022-09-23T06:28:36;-24213.16;;;14.20;nan
7105;BME280;3594;42.152;24.714;2022-09-23T06:31:05;-24215.94;;;14.30;nan
7105;BME280;3594;42.152;24.714;2022-09-23T06:33:33;-24210.19;;;14.09;nan
7105;BME280;3594;42.152;24.714;2022-09-23T06:36:00;-24220.72;;;14.47;nan
7105;BME280;3594;42.152;24.714;2022-09-23T06:38:26;-24223.25;;;14.56;nan
7105;BME280;3594;42.152;24.714;2022-09-23T06:40:53;-24215.25;;;14.27;nan
7105;BME280;3594;42.152;24.714;2022-09-23T06:43:19;-24228.31;;;14.74;nan
7105;BME280;3594;42.152;24.714;2022-09-23T06:45:46;-24226.06;;;14.66;nan
7105;BME280;3594;42.152;24.714;2022-09-23T06:48:11;-24223.81;;;14.58;nan
7105;BME280;3594;42.152;24.714;2022-09-23T06:50:37;-24228.72;;;14.76;nan
7105;BME280;3594;42.152;24.714;2022-09-23T06:53:03;-24223.81;;;14.58;nan
7105;BME280;3594;42.152;24.714;2022-09-23T06:55:29;-24231.38;;;14.85;nan
7105;BME280;3594;42.152;24.714;2022-09-23T06:57:56;-24237.69;;;15.08;nan
7105;BME280;3594;42.152;24.714;2022-09-23T07:00:22;-24243.00;;;15.27;nan
7105;BME280;3594;42.152;24.714;2022-09-23T07:02:48;-24234.19;;;14.95;nan
7105;BME280;3594;42.152;24.714;2022-09-23T07:05:14;-24234.88;;;14.98;nan
7105;BME280;3594;42.152;24.714;2022-09-23T07:07:41;-24225.91;;;14.66;nan
7105;BME280;3594;42.152;24.714;2022-09-23T07:10:08;-24235.59;;;15.00;nan
7105;BME280;3594;42.152;24.714;2022-09-23T07:12:33;-24226.63;;;14.68;nan
7105;BME280;3594;42.152;24.714;2022-09-23T07:14:59;-24240.06;;;15.17;nan
7105;BME280;3594;42.152;24.714;2022-09-23T07:17:24;-24243.28;;;15.28;nan
7105;BME280;3594;42.152;24.714;2022-09-23T07:19:50;-24234.59;;;14.97;nan
7105;BME280;3594;42.152;24.714;2022-09-23T07:22:20;-24244.84;;;15.34;nan
7105;BME280;3594;42.152;24.714;2022-09-23T07:24:45;-24248.19;;;15.46;nan
7105;BME280;3594;42.152;24.714;2022-09-23T07:27:12;-24259.38;;;15.86;nan
7105;BME280;3594;42.152;24.714;2022-09-23T07:29:41;-24249.88;;;15.52;nan
7105;BME280;3594;42.152;24.714;2022-09-23T07:32:07;-24253.38;;;15.65;nan
7105;BME280;3594;42.152;24.714;2022-09-23T07:34:32;-24253.78;;;15.66;nan
7105;BME280;3594;42.152;24.714;2022-09-23T07:36:57;-24250.16;;;15.53;nan
7105;BME280;3594;42.152;24.714;2022-09-23T07:39:23;-24260.78;;;15.91;nan
7105;BME280;3594;42.152;24.714;2022-09-23T07:41:48;-24254.50;;;15.69;nan
7105;BME280;3594;42.152;24.714;2022-09-23T07:44:16;-24269.31;;;16.22;nan
7105;BME280;3594;42.152;24.714;2022-09-23T07:46:42;-24269.88;;;16.24;nan
7105;BME280;3594;42.152;24.714;2022-09-23T07:49:07;-24271.00;;;16.28;nan
7105;BME280;3594;42.152;24.714;2022-09-23T07:51:36;-24261.34;;;15.94;nan
7105;BME280;3594;42.152;24.714;2022-09-23T07:54:06;-24271.69;;;16.31;nan
7105;BME280;3594;42.152;24.714;2022-09-23T07:56:35;-24265.97;;;16.10;nan
7105;BME280;3594;42.152;24.714;2022-09-23T07:59:01;-24269.88;;;16.24;nan
7105;BME280;3594;42.152;24.714;2022-09-23T08:01:31;-24267.38;;;16.15;nan
7105;BME280;3594;42.152;24.714;2022-09-23T08:04:02;-24267.78;;;16.17;nan
7105;BME280;3594;42.152;24.714;2022-09-23T08:06:28;-24271.97;;;16.32;nan
7105;BME280;3594;42.152;24.714;2022-09-23T08:08:56;-24267.22;;;16.15;nan
7105;BME280;3594;42.152;24.714;2022-09-23T08:11:22;-24271.00;;;16.28;nan
7105;BME280;3594;42.152;24.714;2022-09-23T08:13:49;-24285.69;;;16.82;nan
7105;BME280;3594;42.152;24.714;2022-09-23T08:16:14;-24277.16;;;16.51;nan
7105;BME280;3594;42.152;24.714;2022-09-23T08:18:42;-24288.34;;;16.91;nan
7105;BME280;3594;42.152;24.714;2022-09-23T08:21:09;-24280.09;;;16.61;nan
7105;BME280;3594;42.152;24.714;2022-09-23T08:23:34;-24287.06;;;16.87;nan
7105;BME280;3594;42.152;24.714;2022-09-23T08:26:02;-24287.22;;;16.87;nan
7105;BME280;3594;42.152;24.714;2022-09-23T08:28:28;-24282.59;;;16.70;nan
7105;BME280;3594;42.152;24.714;2022-09-23T08:30:54;-24291.00;;;17.01;nan
7105;BME280;3594;42.152;24.714;2022-09-23T08:33:19;-24284.28;;;16.76;nan
7105;BME280;3594;42.152;24.714;2022-09-23T08:35:45;-24289.59;;;16.96;nan
7105;BME280;3594;42.152;24.714;2022-09-23T08:38:10;-24306.75;;;17.58;nan
7105;BME280;3594;42.152;24.714;2022-09-23T08:40:41;-24309.69;;;17.69;nan
7105;BME280;3594;42.152;24.714;2022-09-23T08:43:20;-24308.00;;;17.62;nan
7105;BME280;3594;42.152;24.714;2022-09-23T08:45:50;-24309.84;;;17.69;nan
7105;BME280;3594;42.152;24.714;2022-09-23T08:48:22;-24314.44;;;17.86;nan
7105;BME280;3594;42.152;24.714;2022-09-23T08:50:55;-24312.34;;;17.78;nan
7105;BME280;3594;42.152;24.714;2022-09-23T08:53:28;-24319.72;;;18.05;nan
7105;BME280;3594;42.152;24.714;2022-09-23T08:56:04;-24315.00;;;17.88;nan
7105;BME280;3594;42.152;24.714;2022-09-23T09:06:19;-24317.78;;;17.98;nan
7105;BME280;3594;42.152;24.714;2022-09-23T09:08:53;-24325.88;;;18.27;nan
7105;BME280;3594;42.152;24.714;2022-09-23T09:11:22;-24323.50;;;18.19;nan
7105;BME280;3594;42.152;24.714;2022-09-23T09:14:00;-24331.72;;;18.48;nan
7105;BME280;3594;42.152;24.714;2022-09-23T09:17:03;-24331.72;;;18.48;nan
7105;BME280;3594;42.152;24.714;2022-09-23T09:19:55;-24337.44;;;18.69;nan
7105;BME280;3594;42.152;24.714;2022-09-23T09:25:17;-24340.78;;;18.81;nan
7105;BME280;3594;42.152;24.714;2022-09-23T09:27:43;-24335.34;;;18.62;nan
7105;BME280;3594;42.152;24.714;2022-09-23T09:30:13;-24337.84;;;18.71;nan
7105;BME280;3594;42.152;24.714;2022-09-23T09:38:09;-24339.25;;;18.76;nan
7105;BME280;3594;42.152;24.714;2022-09-23T09:40:43;-24334.63;;;18.59;nan
7105;BME280;3594;42.152;24.714;2022-09-23T09:43:18;-24339.38;;;18.76;nan
7105;BME280;3594;42.152;24.714;2022-09-23T09:46:05;-24356.63;;;19.39;nan
7105;BME280;3594;42.152;24.714;2022-09-23T09:48:40;-24349.81;;;19.14;nan
7105;BME280;3594;42.152;24.714;2022-09-23T09:51:22;-24345.09;;;18.97;nan
7105;BME280;3594;42.152;24.714;2022-09-23T09:53:49;-24351.63;;;19.21;nan
7105;BME280;3594;42.152;24.714;2022-09-23T09:56:30;-24354.28;;;19.30;nan
7105;BME280;3594;42.152;24.714;2022-09-23T09:59:08;-24354.69;;;19.32;nan
7105;BME280;3594;42.152;24.714;2022-09-23T10:01:37;-24346.91;;;19.04;nan
7105;BME280;3594;42.152;24.714;2022-09-23T10:04:04;-24357.19;;;19.41;nan
7105;BME280;3594;42.152;24.714;2022-09-23T10:06:32;-24356.22;;;19.37;nan
7105;BME280;3594;42.152;24.714;2022-09-23T10:09:10;-24347.59;;;19.06;nan
7105;BME280;3594;42.152;24.714;2022-09-23T10:11:37;-24353.56;;;19.28;nan
7105;BME280;3594;42.152;24.714;2022-09-23T10:14:16;-24357.34;;;19.41;nan
7105;BME280;3594;42.152;24.714;2022-09-23T10:16:42;-24359.84;;;19.51;nan
7105;BME280;3594;42.152;24.714;2022-09-23T10:19:29;-24366.22;;;19.74;nan
7105;BME280;3594;42.152;24.714;2022-09-23T10:21:58;-24363.72;;;19.65;nan
7105;BME280;3594;42.152;24.714;2022-09-23T10:24:30;-24359.84;;;19.51;nan
7105;BME280;3594;42.152;24.714;2022-09-23T10:27:07;-24364.84;;;19.69;nan
7105;BME280;3594;42.152;24.714;2022-09-23T10:29:49;-24366.78;;;19.76;nan
7105;BME280;3594;42.152;24.714;2022-09-23T10:32:35;-24377.75;;;20.16;nan
7105;BME280;3594;42.152;24.714;2022-09-23T10:37:50;-24382.63;;;20.34;nan
7105;BME280;3594;42.152;24.714;2022-09-23T10:43:57;-24377.63;;;20.15;nan
7105;BME280;3594;42.152;24.714;2022-09-23T10:47:14;-24382.78;;;20.34;nan
7105;BME280;3594;42.152;24.714;2022-09-23T10:50:09;-24373.72;;;20.01;nan
7105;BME280;3594;42.152;24.714;2022-09-23T10:52:59;-24384.28;;;20.40;nan
7105;BME280;3594;42.152;24.714;2022-09-23T10:55:41;-24383.03;;;20.35;nan
7105;BME280;3594;42.152;24.714;2022-09-23T11:08:38;-24397.34;;;20.87;nan
7105;BME280;3594;42.152;24.714;2022-09-23T11:11:22;-24396.50;;;20.84;nan
7105;BME280;3594;42.152;24.714;2022-09-23T11:27:49;-24409.53;;;21.32;nan
7105;BME280;3594;42.152;24.714;2022-09-23T11:30:19;-24408.44;;;21.28;nan
7105;BME280;3594;42.152;24.714;2022-09-23T11:35:56;-24406.22;;;21.20;nan
7105;BME280;3594;42.152;24.714;2022-09-23T11:38:28;-24407.75;;;21.25;nan
7105;BME280;3594;42.152;24.714;2022-09-23T11:40:59;-24410.25;;;21.34;nan
7105;BME280;3594;42.152;24.714;2022-09-23T11:43:29;-24404.84;;;21.14;nan
7105;BME280;3594;42.152;24.714;2022-09-23T11:46:04;-24415.22;;;21.52;nan
7105;BME280;3594;42.152;24.714;2022-09-23T11:53:58;-24406.63;;;21.21;nan
7105;BME280;3594;42.152;24.714;2022-09-23T11:56:31;-24412.88;;;21.44;nan
7105;BME280;3594;42.152;24.714;2022-09-23T11:59:04;-24412.59;;;21.43;nan
7105;BME280;3594;42.152;24.714;2022-09-23T12:01:37;-24413.69;;;21.47;nan
7105;BME280;3594;42.152;24.714;2022-09-23T12:06:51;-24421.31;;;21.75;nan
7105;BME280;3594;42.152;24.714;2022-09-23T12:09:38;-24418.97;;;21.66;nan
7105;BME280;3594;42.152;24.714;2022-09-23T12:12:52;-24428.94;;;22.02;nan
7105;BME280;3594;42.152;24.714;2022-09-23T12:15:05;-24426.72;;;21.94;nan
7105;BME280;3594;42.152;24.714;2022-09-23T12:28:17;-24424.91;;;21.88;nan
7105;BME280;3594;42.152;24.714;2022-09-23T12:30:45;-24431.72;;;22.13;nan
7105;BME280;3594;42.152;24.714;2022-09-23T12:33:24;-24434.75;;;22.24;nan
7105;BME280;3594;42.152;24.714;2022-09-23T12:35:53;-24429.63;;;22.05;nan
7105;BME280;3594;42.152;24.714;2022-09-23T12:38:21;-24431.84;;;22.13;nan
7105;BME280;3594;42.152;24.714;2022-09-23T12:40:49;-24436.28;;;22.29;nan
7105;BME280;3594;42.152;24.714;2022-09-23T12:43:28;-24431.16;;;22.11;nan
7105;BME280;3594;42.152;24.714;2022-09-23T12:46:01;-24427.69;;;21.98;nan
7105;BME280;3594;42.152;24.714;2022-09-23T12:48:56;-24437.78;;;22.35;nan
7105;BME280;3594;42.152;24.714;2022-09-23T12:51:33;-24437.53;;;22.34;nan
7105;BME280;3594;42.152;24.714;2022-09-23T13:01:40;-24445.81;;;22.64;nan
7105;BME280;3594;42.152;24.714;2022-09-23T13:04:42;-24444.16;;;22.58;nan
7105;BME280;3594;42.152;24.714;2022-09-23T13:07:29;-24420.06;;;21.70;nan
7105;BME280;3594;42.152;24.714;2022-09-23T13:10:06;-24451.63;;;22.85;nan
7105;BME280;3594;42.152;24.714;2022-09-23T13:12:35;-24444.72;;;22.60;nan
7105;BME280;3594;42.152;24.714;2022-09-23T13:15:05;-24443.47;;;22.56;nan
7105;BME280;3594;42.152;24.714;2022-09-23T13:17:39;-24437.94;;;22.35;nan
7105;BME280;3594;42.152;24.714;2022-09-23T13:25:23;-24431.16;;;22.11;nan
7105;BME280;3594;42.152;24.714;2022-09-23T13:27:52;-24429.78;;;22.06;nan
7105;BME280;3594;42.152;24.714;2022-09-23T13:30:21;-24436.84;;;22.31;nan
7105;BME280;3594;42.152;24.714;2022-09-23T13:33:11;-24439.75;;;22.42;nan
7105;BME280;3594;42.152;24.714;2022-09-23T13:35:44;-24434.75;;;22.24;nan
7105;BME280;3594;42.152;24.714;2022-09-23T13:38:19;-24444.72;;;22.60;nan
7105;BME280;3594;42.152;24.714;2022-09-23T13:40:45;-24430.59;;;22.09;nan
7105;BME280;3594;42.152;24.714;2022-09-23T13:43:18;-24440.16;;;22.43;nan
7105;BME280;3594;42.152;24.714;2022-09-23T13:45:46;-24438.06;;;22.36;nan
7105;BME280;3594;42.152;24.714;2022-09-23T13:48:13;-24435.59;;;22.27;nan
7105;BME280;3594;42.152;24.714;2022-09-23T13:50:46;-24426.03;;;21.92;nan
7105;BME280;3594;42.152;24.714;2022-09-23T13:53:19;-24422.28;;;21.78;nan
7105;BME280;3594;42.152;24.714;2022-09-23T13:55:46;-24422.97;;;21.81;nan
7105;BME280;3594;42.152;24.714;2022-09-23T13:58:18;-24406.78;;;21.22;nan
7105;BME280;3594;42.152;24.714;2022-09-23T14:00:44;-24418.69;;;21.65;nan
7105;BME280;3594;42.152;24.714;2022-09-23T14:05:49;-24420.91;;;21.73;nan
7105;BME280;3594;42.152;24.714;2022-09-23T14:08:16;-24419.94;;;21.70;nan
7105;BME280;3594;42.152;24.714;2022-09-23T14:10:44;-24425.75;;;21.91;nan
7105;BME280;3594;42.152;24.714;2022-09-23T14:13:20;-24420.91;;;21.73;nan
7105;BME280;3594;42.152;24.714;2022-09-23T14:15:47;-24421.75;;;21.76;nan
7105;BME280;3594;42.152;24.714;2022-09-23T14:18:24;-24428.13;;;21.99;nan
7105;BME280;3594;42.152;24.714;2022-09-23T14:20:51;-24396.78;;;20.85;nan
7105;BME280;3594;42.152;24.714;2022-09-23T14:23:17;-24389.56;;;20.59;nan
7105;BME280;3594;42.152;24.714;2022-09-23T14:25:43;-24393.72;;;20.74;nan
7105;BME280;3594;42.152;24.714;2022-09-23T14:28:16;-24390.97;;;20.64;nan
7105;BME280;3594;42.152;24.714;2022-09-23T14:30:43;-24379.28;;;20.21;nan
7105;BME280;3594;42.152;24.714;2022-09-23T14:33:20;-24364.00;;;19.66;nan
7105;BME280;3594;42.152;24.714;2022-09-23T14:35:53;-24358.72;;;19.47;nan
7105;BME280;3594;42.152;24.714;2022-09-23T14:38:22;-24363.03;;;19.62;nan
7105;BME280;3594;42.152;24.714;2022-09-23T14:41:17;-24360.81;;;19.54;nan
7105;BME280;3594;42.152;24.714;2022-09-23T14:43:55;-24362.91;;;19.62;nan
7105;BME280;3594;42.152;24.714;2022-09-23T14:46:23;-24363.31;;;19.63;nan
7105;BME280;3594;42.152;24.714;2022-09-23T14:49:01;-24355.66;;;19.35;nan
7105;BME280;3594;42.152;24.714;2022-09-23T14:57:00;-24350.50;;;19.17;nan
7105;BME280;3594;42.152;24.714;2022-09-23T14:59:31;-24341.75;;;18.85;nan
7105;BME280;3594;42.152;24.714;2022-09-23T15:01:57;-24338.00;;;18.71;nan
7105;BME280;3594;42.152;24.714;2022-09-23T15:07:02;-24340.91;;;18.82;nan
7105;BME280;3594;42.152;24.714;2022-09-23T15:09:30;-24336.59;;;18.66;nan
7105;BME280;3594;42.152;24.714;2022-09-23T15:12:17;-24334.22;;;18.58;nan
7105;BME280;3594;42.152;24.714;2022-09-23T15:14:50;-24329.06;;;18.39;nan
7105;BME280;3594;42.152;24.714;2022-09-23T15:19:51;-24310.66;;;17.72;nan
7105;BME280;3594;42.152;24.714;2022-09-23T15:22:19;-24317.50;;;17.97;nan
7105;BME280;3594;42.152;24.714;2022-09-23T15:24:45;-24321.41;;;18.11;nan
7105;BME280;3594;42.152;24.714;2022-09-23T15:27:24;-24315.53;;;17.90;nan
7105;BME280;3594;42.152;24.714;2022-09-23T15:29:51;-24315.97;;;17.91;nan
7105;BME280;3594;42.152;24.714;2022-09-23T15:32:17;-24314.28;;;17.85;nan
7105;BME280;3594;42.152;24.714;2022-09-23T15:34:43;-24303.97;;;17.48;nan
7105;BME280;3594;42.152;24.714;2022-09-23T15:37:11;-24301.31;;;17.38;nan
7105;BME280;3594;42.152;24.714;2022-09-23T15:39:37;-24305.22;;;17.52;nan
7105;BME280;3594;42.152;24.714;2022-09-23T15:42:03;-24302.84;;;17.44;nan
7105;BME280;3594;42.152;24.714;2022-09-23T15:44:30;-24308.56;;;17.64;nan
7105;BME280;3594;42.152;24.714;2022-09-23T15:46:56;-24298.25;;;17.27;nan
7105;BME280;3594;42.152;24.714;2022-09-23T15:49:30;-24304.66;;;17.50;nan
7105;BME280;3594;42.152;24.714;2022-09-23T15:52:00;-24301.19;;;17.38;nan
7105;BME280;3594;42.152;24.714;2022-09-23T15:54:27;-24298.94;;;17.30;nan